Time;durP1;ratioP1;P1;durP2;ratioP2;P2;SDS_P1;SDS_P2;PMS_P1;PMS_P2;Temp;Humidity;BMP_temperature;BMP_pressure;BME280_temperature;BME280_humidity;BME280_pressure;Samples;Min_cycle;Max_cycle;Signal;HPM_P1;HPM_P2
2021/08/23 00:02:19;;;;;;;0.10;0.10;;;17.90;99.90;;;;;;5032607;28;20017;-80
2021/08/23 00:04:45;;;;;;;0.10;0.10;;;17.90;99.90;;;;;;5030705;28;20025;-80
2021/08/23 00:07:11;;;;;;;0.10;0.10;;;17.90;99.90;;;;;;5032317;28;20366;-80
2021/08/23 00:09:36;;;;;;;0.10;0.10;;;17.90;99.90;;;;;;5030774;28;20021;-80
2021/08/23 00:12:03;;;;;;;0.10;0.10;;;17.90;99.90;;;;;;5032421;28;20112;-80
2021/08/23 00:14:28;;;;;;;0.10;0.10;;;17.90;99.90;;;;;;5031357;28;20076;-81
2021/08/23 00:16:54;;;;;;;0.10;0.10;;;18.00;99.90;;;;;;5031944;28;20344;-81
2021/08/23 00:19:20;;;;;;;0.10;0.10;;;18.00;99.90;;;;;;5038525;28;20018;-80
2021/08/23 00:21:49;;;;;;;0.00;0.00;;;18.00;99.90;;;;;;5033234;28;20013;-80
2021/08/23 00:24:32;;;;;;;0.00;0.00;;;18.00;99.90;;;;;;5033124;28;20056;-81
2021/08/23 00:26:58;;;;;;;0.10;0.10;;;18.00;99.90;;;;;;5032796;28;20025;-81
2021/08/23 00:29:25;;;;;;;0.10;0.10;;;17.90;99.90;;;;;;5032681;28;20083;-81
2021/08/23 00:31:51;;;;;;;0.10;0.10;;;17.90;99.90;;;;;;5030442;28;20036;-82
2021/08/23 00:34:17;;;;;;;0.08;0.08;;;17.90;99.90;;;;;;5031237;28;20096;-81
2021/08/23 00:36:43;;;;;;;0.00;0.00;;;17.90;99.90;;;;;;5037383;28;20119;-80
2021/08/23 00:39:10;;;;;;;0.10;0.10;;;17.90;99.90;;;;;;5050974;28;20018;-78
2021/08/23 00:41:37;;;;;;;0.10;0.10;;;17.90;99.90;;;;;;5049739;28;20021;-81
2021/08/23 00:44:04;;;;;;;0.00;0.00;;;17.90;99.90;;;;;;5046937;28;20049;-80
2021/08/23 00:46:30;;;;;;;0.10;0.10;;;17.90;99.90;;;;;;5031173;28;20377;-82
2021/08/23 00:48:55;;;;;;;0.10;0.10;;;17.90;99.90;;;;;;5031332;28;20434;-79
2021/08/23 00:51:21;;;;;;;0.10;0.10;;;17.90;99.90;;;;;;5032098;28;20017;-80
2021/08/23 00:53:48;;;;;;;0.00;0.00;;;17.90;99.90;;;;;;5031415;28;20029;-81
2021/08/23 00:56:18;;;;;;;0.00;0.00;;;17.90;99.90;;;;;;5030686;28;20028;-80
2021/08/23 00:58:44;;;;;;;0.10;0.10;;;17.90;99.90;;;;;;5031672;28;20525;-80
2021/08/23 01:01:40;;;;;;;0.10;0.10;;;17.80;99.90;;;;;;5031002;28;20338;-80
2021/08/23 01:04:29;;;;;;;0.13;0.08;;;17.90;99.90;;;;;;5030799;28;20046;-81
2021/08/23 01:06:57;;;;;;;0.10;0.10;;;17.90;99.90;;;;;;5031396;28;20025;-81
2021/08/23 01:09:27;;;;;;;0.00;0.00;;;17.90;99.90;;;;;;5030722;28;20024;-81
2021/08/23 01:11:55;;;;;;;0.00;0.00;;;17.80;99.90;;;;;;5029982;28;20778;-81
2021/08/23 01:14:21;;;;;;;0.00;0.00;;;17.80;99.90;;;;;;5030763;28;20116;-81
2021/08/23 01:16:47;;;;;;;0.10;0.10;;;17.90;99.90;;;;;;5031284;28;20060;-81
2021/08/23 01:19:14;;;;;;;0.10;0.10;;;17.90;99.90;;;;;;5032034;28;20045;-81
2021/08/23 01:21:41;;;;;;;0.10;0.10;;;17.90;99.90;;;;;;5030853;28;20017;-81
2021/08/23 01:24:09;;;;;;;0.10;0.10;;;18.00;99.90;;;;;;5030541;28;20045;-81
2021/08/23 01:26:43;;;;;;;0.10;0.10;;;18.00;99.90;;;;;;5030136;28;20079;-80
2021/08/23 01:29:14;;;;;;;0.10;0.10;;;18.00;99.90;;;;;;5031819;28;20029;-81
2021/08/23 01:32:10;;;;;;;0.10;0.10;;;18.00;99.90;;;;;;5033472;28;20017;-81
2021/08/23 01:34:37;;;;;;;0.10;0.10;;;18.00;99.90;;;;;;5033107;28;20046;-81
2021/08/23 01:37:04;;;;;;;0.00;0.00;;;18.00;99.90;;;;;;5035053;28;20028;-81
2021/08/23 01:39:32;;;;;;;0.10;0.10;;;18.00;99.90;;;;;;5033825;28;20102;-81
2021/08/23 01:41:59;;;;;;;0.10;0.10;;;18.10;99.90;;;;;;5033160;28;20020;-81
2021/08/23 01:44:24;;;;;;;0.00;0.00;;;18.00;99.90;;;;;;5035149;28;20529;-81
2021/08/23 01:46:50;;;;;;;0.05;0.05;;;18.10;99.90;;;;;;5034233;28;20200;-81
2021/08/23 01:49:16;;;;;;;0.10;0.10;;;18.10;99.90;;;;;;5033857;28;20087;-81
2021/08/23 01:51:41;;;;;;;0.10;0.10;;;18.00;99.90;;;;;;5033027;28;20103;-81
2021/08/23 01:54:07;;;;;;;0.40;0.10;;;18.00;99.90;;;;;;5033745;28;20153;-81
2021/08/23 01:56:33;;;;;;;0.10;0.10;;;18.00;99.90;;;;;;5033598;28;20360;-81
2021/08/23 01:59:00;;;;;;;0.10;0.10;;;18.00;99.90;;;;;;5032871;28;20022;-81
2021/08/23 02:01:26;;;;;;;0.10;0.10;;;18.00;99.90;;;;;;5033527;28;20021;-81
2021/08/23 02:03:51;;;;;;;0.00;0.00;;;18.10;99.90;;;;;;5032893;28;20104;-81
2021/08/23 02:06:17;;;;;;;0.10;0.10;;;18.10;99.90;;;;;;5034936;28;20028;-81
2021/08/23 02:08:44;;;;;;;0.10;0.10;;;18.10;99.90;;;;;;5032500;28;20021;-81
2021/08/23 02:11:10;;;;;;;0.10;0.10;;;18.10;99.90;;;;;;5033391;28;20113;-81
2021/08/23 02:13:36;;;;;;;0.10;0.10;;;18.10;99.90;;;;;;5033325;28;20112;-81
2021/08/23 02:16:01;;;;;;;0.13;0.10;;;18.10;99.90;;;;;;5033743;28;20024;-80
2021/08/23 02:18:27;;;;;;;0.10;0.10;;;18.10;99.90;;;;;;5033283;28;20023;-81
2021/08/23 02:20:53;;;;;;;0.00;0.00;;;18.10;99.90;;;;;;5032737;28;20338;-81
2021/08/23 02:23:18;;;;;;;0.08;0.08;;;18.20;99.90;;;;;;5033112;28;20022;-81
2021/08/23 02:25:44;;;;;;;0.10;0.10;;;18.20;99.90;;;;;;5033887;28;20026;-80
2021/08/23 02:28:10;;;;;;;0.00;0.00;;;18.20;99.90;;;;;;5033065;28;20025;-81
2021/08/23 02:30:37;;;;;;;0.00;0.00;;;18.20;99.90;;;;;;5032954;28;20064;-81
2021/08/23 02:33:04;;;;;;;0.10;0.10;;;18.20;99.90;;;;;;5032187;28;20029;-81
2021/08/23 02:35:30;;;;;;;0.10;0.10;;;18.20;99.90;;;;;;5033801;28;20362;-81
2021/08/23 02:37:55;;;;;;;0.10;0.10;;;18.20;99.90;;;;;;5032235;28;20151;-81
2021/08/23 02:40:21;;;;;;;0.10;0.10;;;18.20;99.90;;;;;;5033842;28;20022;-81
2021/08/23 02:42:47;;;;;;;0.00;0.00;;;18.20;99.90;;;;;;5032486;28;20461;-81
2021/08/23 02:45:13;;;;;;;0.10;0.10;;;18.10;99.90;;;;;;5032682;28;20079;-81
2021/08/23 02:47:39;;;;;;;0.00;0.00;;;18.20;99.90;;;;;;5037121;28;20074;-81
2021/08/23 02:50:07;;;;;;;0.10;0.10;;;18.20;99.90;;;;;;5043556;28;20017;-81
2021/08/23 02:52:33;;;;;;;0.10;0.10;;;18.20;99.90;;;;;;5040748;28;20029;-82
2021/08/23 02:54:59;;;;;;;0.00;0.00;;;18.20;99.90;;;;;;5035384;28;20523;-82
2021/08/23 02:57:25;;;;;;;0.10;0.10;;;18.10;99.90;;;;;;5032528;28;20021;-81
2021/08/23 02:59:50;;;;;;;0.10;0.10;;;18.20;99.90;;;;;;5033321;28;20071;-81
2021/08/23 03:02:16;;;;;;;0.30;0.10;;;18.10;99.90;;;;;;5032716;28;20021;-82
2021/08/23 03:04:42;;;;;;;0.08;0.08;;;18.10;99.90;;;;;;5032943;28;20017;-80
2021/08/23 03:07:07;;;;;;;0.00;0.00;;;18.10;99.90;;;;;;5032336;28;20414;-82
2021/08/23 03:09:33;;;;;;;0.20;0.10;;;18.20;99.90;;;;;;5033684;28;20104;-81
2021/08/23 03:11:59;;;;;;;0.10;0.10;;;18.10;99.90;;;;;;5033055;28;20037;-82
2021/08/23 03:14:24;;;;;;;0.00;0.00;;;18.20;99.90;;;;;;5033812;28;20027;-82
2021/08/23 03:16:50;;;;;;;0.10;0.10;;;18.10;99.90;;;;;;5031807;28;20341;-83
2021/08/23 03:19:16;;;;;;;0.10;0.10;;;18.10;99.90;;;;;;5033993;28;20446;-83
2021/08/23 03:21:42;;;;;;;0.10;0.10;;;18.10;99.90;;;;;;5032399;28;20021;-83
2021/08/23 03:24:07;;;;;;;0.10;0.10;;;18.10;99.90;;;;;;5032286;28;20017;-83
2021/08/23 03:26:33;;;;;;;0.38;0.10;;;18.10;99.90;;;;;;5032247;28;20334;-83
2021/08/23 03:28:59;;;;;;;0.10;0.10;;;18.00;99.90;;;;;;5031526;28;20018;-82
2021/08/23 03:31:24;;;;;;;0.10;0.10;;;18.00;99.90;;;;;;5032126;28;20032;-82
2021/08/23 03:33:50;;;;;;;0.32;0.30;;;18.00;99.90;;;;;;5032434;28;20025;-82
2021/08/23 03:36:16;;;;;;;0.10;0.10;;;18.00;99.90;;;;;;5032128;28;20028;-82
2021/08/23 03:38:42;;;;;;;0.45;0.20;;;18.00;99.90;;;;;;5032000;28;20335;-82
2021/08/23 03:41:12;;;;;;;0.32;0.10;;;18.00;99.90;;;;;;5032679;28;20020;-82
2021/08/23 03:43:37;;;;;;;0.15;0.10;;;18.00;99.90;;;;;;5031832;28;20025;-83
2021/08/23 03:46:03;;;;;;;0.85;0.17;;;18.00;99.90;;;;;;5032307;28;20017;-82
2021/08/23 03:48:28;;;;;;;0.82;0.20;;;18.00;99.90;;;;;;5033009;28;20083;-83
2021/08/23 03:50:54;;;;;;;0.40;0.20;;;17.90;99.90;;;;;;5032403;28;20021;-83
2021/08/23 03:53:20;;;;;;;0.10;0.10;;;17.90;99.90;;;;;;5030805;28;20053;-83
2021/08/23 03:55:45;;;;;;;0.10;0.10;;;17.90;99.90;;;;;;5030960;28;20025;-81
2021/08/23 03:58:11;;;;;;;0.10;0.10;;;17.90;99.90;;;;;;5031964;28;20013;-83
2021/08/23 04:00:36;;;;;;;0.30;0.20;;;17.90;99.90;;;;;;5032921;28;20037;-82
2021/08/23 04:03:02;;;;;;;0.10;0.10;;;17.80;99.90;;;;;;5031007;28;20529;-83
2021/08/23 04:05:28;;;;;;;0.15;0.15;;;17.90;99.90;;;;;;5032737;28;20437;-81
2021/08/23 04:07:53;;;;;;;0.10;0.10;;;17.90;99.90;;;;;;5033533;28;20365;-84
2021/08/23 04:10:19;;;;;;;0.15;0.10;;;17.80;99.90;;;;;;5031378;28;20025;-79
2021/08/23 04:12:45;;;;;;;0.10;0.10;;;17.80;99.90;;;;;;5032981;28;20057;-79
2021/08/23 04:15:11;;;;;;;0.55;0.20;;;17.80;99.90;;;;;;5033927;28;20029;-81
2021/08/23 04:17:36;;;;;;;0.43;0.22;;;17.80;99.90;;;;;;5032715;28;20412;-83
2021/08/23 04:20:03;;;;;;;0.20;0.10;;;17.80;99.90;;;;;;5032055;28;20430;-81
2021/08/23 04:22:30;;;;;;;0.15;0.15;;;17.80;99.90;;;;;;5031584;28;20036;-84
2021/08/23 04:24:56;;;;;;;0.68;0.20;;;17.80;99.90;;;;;;5031185;28;20052;-81
2021/08/23 04:27:22;;;;;;;0.10;0.10;;;17.70;99.90;;;;;;5031475;28;20025;-83
2021/08/23 04:29:47;;;;;;;0.10;0.10;;;17.70;99.90;;;;;;5032081;28;20040;-85
2021/08/23 04:32:13;;;;;;;0.25;0.20;;;17.70;99.90;;;;;;5031479;28;20453;-80
2021/08/23 04:34:39;;;;;;;0.20;0.20;;;17.70;99.90;;;;;;5031118;28;20511;-83
2021/08/23 04:37:04;;;;;;;0.20;0.20;;;17.70;99.90;;;;;;5030839;28;20071;-83
2021/08/23 04:39:34;;;;;;;0.63;0.20;;;17.70;99.90;;;;;;5031483;28;20021;-83
2021/08/23 04:42:00;;;;;;;0.55;0.20;;;17.70;99.90;;;;;;5031640;28;20529;-84
2021/08/23 04:44:26;;;;;;;0.20;0.17;;;17.70;99.90;;;;;;5032903;28;20028;-84
2021/08/23 04:46:52;;;;;;;0.25;0.25;;;17.70;99.90;;;;;;5030701;28;20021;-83
2021/08/23 04:49:18;;;;;;;1.13;0.20;;;17.60;99.90;;;;;;5031195;28;20017;-81
2021/08/23 04:51:44;;;;;;;0.10;0.10;;;17.60;99.90;;;;;;5029598;28;20025;-74
2021/08/23 04:54:09;;;;;;;0.40;0.20;;;17.70;99.90;;;;;;5029551;28;20026;-75
2021/08/23 04:56:36;;;;;;;0.28;0.17;;;17.60;99.90;;;;;;5028775;28;20040;-78
2021/08/23 04:59:01;;;;;;;0.20;0.20;;;17.60;99.90;;;;;;5029318;28;20087;-75
2021/08/23 05:01:27;;;;;;;0.20;0.20;;;17.60;99.90;;;;;;5030093;28;20433;-75
2021/08/23 05:03:53;;;;;;;0.30;0.20;;;17.60;99.90;;;;;;5030473;28;20025;-75
2021/08/23 05:06:18;;;;;;;0.80;0.20;;;17.60;99.90;;;;;;5033342;28;20378;-74
2021/08/23 05:08:44;;;;;;;0.10;0.10;;;17.60;99.90;;;;;;5033606;28;20100;-75
2021/08/23 05:11:10;;;;;;;0.20;0.20;;;17.60;99.90;;;;;;5032978;28;20032;-74
2021/08/23 05:13:36;;;;;;;0.38;0.20;;;17.60;99.90;;;;;;5033598;28;20113;-76
2021/08/23 05:16:02;;;;;;;0.10;0.10;;;17.70;99.90;;;;;;5036282;28;20418;-74
2021/08/23 05:18:27;;;;;;;0.40;0.20;;;17.70;99.90;;;;;;5046076;28;20043;-75
2021/08/23 05:20:53;;;;;;;0.20;0.20;;;17.70;99.90;;;;;;5059194;28;20021;-76
2021/08/23 05:23:18;;;;;;;0.40;0.20;;;17.70;99.90;;;;;;5053824;28;20088;-76
2021/08/23 05:25:44;;;;;;;0.35;0.10;;;17.70;99.90;;;;;;5068708;28;20033;-75
2021/08/23 05:28:10;;;;;;;1.65;0.40;;;17.70;99.90;;;;;;5061380;28;20383;-75
2021/08/23 05:30:36;;;;;;;0.20;0.13;;;17.70;99.90;;;;;;5048951;28;20430;-75
2021/08/23 05:33:02;;;;;;;0.52;0.20;;;17.70;99.90;;;;;;5033202;28;20037;-75
2021/08/23 05:35:28;;;;;;;0.10;0.10;;;17.70;99.90;;;;;;5033857;28;20141;-75
2021/08/23 05:37:54;;;;;;;0.45;0.25;;;17.70;99.90;;;;;;5031534;28;20409;-76
2021/08/23 05:40:23;;;;;;;0.20;0.20;;;17.70;99.90;;;;;;5033511;28;20013;-75
2021/08/23 05:42:52;;;;;;;0.10;0.10;;;17.70;99.90;;;;;;5034221;28;20021;-79
2021/08/23 05:45:18;;;;;;;0.10;0.10;;;17.70;99.90;;;;;;5034735;28;20057;-78
2021/08/23 05:47:44;;;;;;;0.40;0.20;;;17.70;99.90;;;;;;5034975;28;20457;-79
2021/08/23 05:50:10;;;;;;;0.20;0.20;;;17.70;99.90;;;;;;5032987;28;20113;-79
2021/08/23 05:52:35;;;;;;;0.17;0.10;;;17.70;99.90;;;;;;5035087;28;20381;-78
2021/08/23 05:55:01;;;;;;;0.40;0.20;;;17.70;99.90;;;;;;5032935;28;20033;-79
2021/08/23 05:57:27;;;;;;;0.10;0.10;;;17.70;99.90;;;;;;5034892;28;20168;-78
2021/08/23 05:59:53;;;;;;;1.30;0.20;;;17.70;99.90;;;;;;5034833;28;20057;-78
2021/08/23 06:02:19;;;;;;;0.20;0.20;;;17.70;99.90;;;;;;5033361;28;20029;-78
2021/08/23 06:04:45;;;;;;;0.75;0.20;;;17.70;99.90;;;;;;5034792;28;20148;-78
2021/08/23 06:07:10;;;;;;;0.10;0.10;;;17.70;99.90;;;;;;5034299;28;20057;-78
2021/08/23 06:09:36;;;;;;;0.20;0.20;;;17.80;99.90;;;;;;5033269;28;20017;-78
2021/08/23 06:12:02;;;;;;;0.47;0.28;;;17.80;99.90;;;;;;5032574;28;20377;-78
2021/08/23 06:14:28;;;;;;;0.20;0.20;;;17.80;99.90;;;;;;5033168;28;20018;-78
2021/08/23 06:16:53;;;;;;;0.35;0.30;;;17.80;99.90;;;;;;5033574;28;20021;-78
2021/08/23 06:19:19;;;;;;;0.20;0.17;;;17.80;99.90;;;;;;5032491;28;20048;-78
2021/08/23 06:21:45;;;;;;;0.20;0.20;;;17.80;99.90;;;;;;5034218;28;20072;-78
2021/08/23 06:24:11;;;;;;;0.40;0.20;;;17.80;99.90;;;;;;5033583;28;20345;-78
2021/08/23 06:26:36;;;;;;;0.10;0.10;;;17.80;99.90;;;;;;5033903;28;20123;-78
2021/08/23 06:29:03;;;;;;;0.45;0.20;;;17.80;99.90;;;;;;5032001;28;20022;-78
2021/08/23 06:31:28;;;;;;;0.25;0.20;;;17.80;99.90;;;;;;5032820;28;20478;-78
2021/08/23 06:33:54;;;;;;;0.10;0.10;;;17.80;99.90;;;;;;5032487;28;20041;-78
2021/08/23 06:36:20;;;;;;;0.10;0.10;;;17.90;99.90;;;;;;5033423;28;20030;-78
2021/08/23 06:38:46;;;;;;;0.93;0.20;;;17.90;99.90;;;;;;5034014;28;20026;-78
2021/08/23 06:41:19;;;;;;;0.10;0.10;;;18.00;99.90;;;;;;5033296;28;20022;-78
2021/08/23 06:43:46;;;;;;;0.30;0.10;;;18.00;99.90;;;;;;5032727;28;20030;-78
2021/08/23 06:46:11;;;;;;;0.20;0.10;;;18.00;99.90;;;;;;5033313;28;20488;-78
2021/08/23 06:48:37;;;;;;;0.20;0.20;;;18.00;99.90;;;;;;5032595;28;20021;-78
2021/08/23 06:51:03;;;;;;;0.17;0.17;;;18.00;99.90;;;;;;5032881;28;20033;-79
2021/08/23 06:53:28;;;;;;;0.35;0.20;;;18.10;99.90;;;;;;5033583;28;20083;-78
2021/08/23 06:55:54;;;;;;;0.20;0.20;;;18.10;99.90;;;;;;5032365;28;20115;-78
2021/08/23 06:58:20;;;;;;;0.13;0.13;;;18.20;99.90;;;;;;5031757;28;20025;-79
2021/08/23 07:00:45;;;;;;;0.15;0.10;;;18.30;99.90;;;;;;5032230;28;20033;-78
2021/08/23 07:03:11;;;;;;;1.35;0.20;;;18.30;99.90;;;;;;5031403;28;20029;-78
2021/08/23 07:05:37;;;;;;;0.52;0.20;;;18.30;99.90;;;;;;5033724;28;20083;-78
2021/08/23 07:08:02;;;;;;;0.10;0.10;;;18.20;99.90;;;;;;5032580;28;20382;-78
2021/08/23 07:10:28;;;;;;;0.10;0.10;;;18.20;99.90;;;;;;5033362;28;20428;-78
2021/08/23 07:12:54;;;;;;;1.08;0.20;;;18.20;99.90;;;;;;5031913;28;20021;-78
2021/08/23 07:15:20;;;;;;;0.13;0.13;;;18.20;99.90;;;;;;5031367;28;20036;-78
2021/08/23 07:17:45;;;;;;;0.30;0.20;;;18.10;99.90;;;;;;5031892;28;20020;-78
2021/08/23 07:20:11;;;;;;;0.10;0.10;;;18.10;99.90;;;;;;5032576;28;20017;-78
2021/08/23 07:22:37;;;;;;;0.25;0.10;;;18.10;99.90;;;;;;5031984;28;20033;-79
2021/08/23 07:25:06;;;;;;;0.38;0.20;;;18.10;99.90;;;;;;5032359;28;20355;-80
2021/08/23 07:27:32;;;;;;;0.10;0.10;;;18.10;99.90;;;;;;5031757;28;20037;-79
2021/08/23 07:29:59;;;;;;;0.25;0.10;;;18.20;99.90;;;;;;5033307;28;20021;-78
2021/08/23 07:32:25;;;;;;;0.13;0.13;;;18.20;99.90;;;;;;5031130;28;20128;-79
2021/08/23 07:34:51;;;;;;;0.10;0.10;;;18.20;99.90;;;;;;5033150;28;20046;-79
2021/08/23 07:37:17;;;;;;;0.25;0.13;;;18.20;99.90;;;;;;5032637;28;20060;-78
2021/08/23 07:39:43;;;;;;;0.10;0.10;;;18.20;99.90;;;;;;5035173;28;20022;-79
2021/08/23 07:42:10;;;;;;;0.10;0.10;;;18.20;99.90;;;;;;5033450;28;20040;-79
2021/08/23 07:44:36;;;;;;;0.10;0.10;;;18.20;99.90;;;;;;5033487;28;20029;-79
2021/08/23 07:47:02;;;;;;;0.22;0.20;;;18.30;99.90;;;;;;5032446;28;20382;-79
2021/08/23 07:49:27;;;;;;;0.22;0.22;;;18.30;99.90;;;;;;5031488;28;20179;-79
2021/08/23 07:51:53;;;;;;;0.10;0.10;;;18.30;99.90;;;;;;5032630;28;20469;-79
2021/08/23 07:54:19;;;;;;;0.13;0.10;;;18.40;99.90;;;;;;5031656;28;20041;-80
2021/08/23 07:56:45;;;;;;;0.20;0.15;;;18.50;99.90;;;;;;5031114;28;20026;-79
2021/08/23 07:59:11;;;;;;;0.10;0.10;;;18.50;99.90;;;;;;5031850;28;20076;-80
2021/08/23 08:01:37;;;;;;;0.10;0.10;;;18.60;99.90;;;;;;5032173;28;20025;-80
2021/08/23 08:04:03;;;;;;;0.20;0.20;;;18.70;99.90;;;;;;5031758;28;20497;-80
2021/08/23 08:06:29;;;;;;;0.20;0.20;;;18.80;99.90;;;;;;5031015;28;20049;-80
2021/08/23 08:08:55;;;;;;;0.10;0.10;;;18.80;99.90;;;;;;5032425;28;20022;-80
2021/08/23 08:11:20;;;;;;;0.10;0.10;;;18.80;99.90;;;;;;5031470;28;20048;-80
2021/08/23 08:13:46;;;;;;;0.15;0.13;;;18.80;99.90;;;;;;5030737;28;20025;-80
2021/08/23 08:16:12;;;;;;;0.20;0.17;;;18.80;99.90;;;;;;5030181;28;20076;-80
2021/08/23 08:18:38;;;;;;;0.10;0.10;;;18.80;99.90;;;;;;5030741;28;20029;-80
2021/08/23 08:21:04;;;;;;;0.10;0.10;;;18.80;99.90;;;;;;5031530;28;20021;-80
2021/08/23 08:23:30;;;;;;;0.10;0.10;;;18.80;99.90;;;;;;5031743;28;20108;-80
2021/08/23 08:25:56;;;;;;;0.10;0.10;;;18.90;99.90;;;;;;5031995;28;20481;-80
2021/08/23 08:28:21;;;;;;;0.10;0.10;;;19.00;99.90;;;;;;5031335;28;20401;-80
2021/08/23 08:30:47;;;;;;;0.10;0.10;;;19.00;99.90;;;;;;5031689;28;20113;-80
2021/08/23 08:33:14;;;;;;;0.10;0.10;;;19.10;99.90;;;;;;5031243;28;20048;-79
2021/08/23 08:35:41;;;;;;;0.17;0.17;;;19.00;99.90;;;;;;5029978;28;20050;-80
2021/08/23 08:38:07;;;;;;;0.10;0.10;;;19.10;99.90;;;;;;5032170;28;20021;-80
2021/08/23 08:40:32;;;;;;;0.10;0.10;;;19.20;99.90;;;;;;5038352;28;20416;-79
2021/08/23 08:42:58;;;;;;;0.10;0.10;;;19.30;99.90;;;;;;5038513;28;20064;-79
2021/08/23 08:45:27;;;;;;;0.32;0.10;;;19.30;99.90;;;;;;5036547;28;20017;-79
2021/08/23 08:47:54;;;;;;;0.08;0.08;;;19.40;99.90;;;;;;5037150;28;20377;-79
2021/08/23 08:50:22;;;;;;;0.10;0.10;;;19.40;99.90;;;;;;5037846;28;20103;-79
2021/08/23 08:52:48;;;;;;;0.30;0.10;;;19.50;99.90;;;;;;5037211;28;20037;-79
2021/08/23 08:55:15;;;;;;;0.10;0.10;;;19.50;99.90;;;;;;5037769;28;20113;-80
2021/08/23 08:57:40;;;;;;;0.30;0.30;;;19.50;99.90;;;;;;5038219;28;20061;-80
2021/08/23 09:00:08;;;;;;;0.15;0.10;;;19.50;99.90;;;;;;5037993;28;20128;-80
2021/08/23 09:02:34;;;;;;;0.10;0.10;;;19.50;99.90;;;;;;5037030;28;20079;-80
2021/08/23 09:05:23;;;;;;;0.30;0.20;;;19.50;99.90;;;;;;5036958;28;20474;-80
2021/08/23 09:07:50;;;;;;;0.10;0.10;;;19.60;99.80;;;;;;5037846;28;20095;-80
2021/08/23 09:10:22;;;;;;;0.10;0.10;;;19.60;99.80;;;;;;5036082;28;20025;-80
2021/08/23 09:13:01;;;;;;;0.50;0.20;;;19.70;99.70;;;;;;5036881;28;20036;-80
2021/08/23 09:15:27;;;;;;;0.10;0.10;;;19.70;99.50;;;;;;5036212;28;20271;-80
2021/08/23 09:18:07;;;;;;;0.10;0.10;;;19.80;99.60;;;;;;5036955;28;20018;-78
2021/08/23 09:20:37;;;;;;;0.10;0.10;;;19.80;99.50;;;;;;5036847;28;20025;-80
2021/08/23 09:23:14;;;;;;;0.15;0.10;;;19.80;99.50;;;;;;5037984;28;20036;-81
2021/08/23 09:25:44;;;;;;;0.10;0.10;;;19.80;99.50;;;;;;5036817;28;20052;-80
2021/08/23 09:28:10;;;;;;;0.10;0.10;;;19.80;99.50;;;;;;5036157;28;20029;-81
2021/08/23 09:30:37;;;;;;;0.10;0.10;;;19.80;99.60;;;;;;5036664;28;20017;-80
2021/08/23 09:33:05;;;;;;;0.20;0.10;;;19.90;99.60;;;;;;5037914;28;20025;-80
2021/08/23 09:35:36;;;;;;;0.35;0.20;;;19.90;99.50;;;;;;5037771;28;20052;-81
2021/08/23 09:38:11;;;;;;;0.10;0.10;;;20.00;99.50;;;;;;5037260;28;20458;-81
2021/08/23 09:40:38;;;;;;;0.10;0.10;;;20.00;99.50;;;;;;5039090;28;20056;-82
2021/08/23 09:43:13;;;;;;;0.10;0.10;;;19.90;99.60;;;;;;5037805;28;20238;-81
2021/08/23 09:45:49;;;;;;;0.93;0.10;;;20.00;99.60;;;;;;5037437;28;20048;-81
2021/08/23 09:48:16;;;;;;;0.20;0.20;;;20.10;99.80;;;;;;5036373;28;20021;-81
2021/08/23 09:50:46;;;;;;;0.10;0.10;;;20.20;99.40;;;;;;5033355;28;20350;-80
2021/08/23 09:53:16;;;;;;;0.10;0.10;;;20.30;99.40;;;;;;5034152;28;20026;-81
2021/08/23 09:55:48;;;;;;;0.20;0.20;;;20.40;99.20;;;;;;5034523;28;20056;-79
2021/08/23 09:58:14;;;;;;;0.20;0.20;;;20.40;99.10;;;;;;5034086;28;20018;-80
2021/08/23 10:00:42;;;;;;;0.30;0.17;;;20.40;99.10;;;;;;5033279;28;20057;-79
2021/08/23 10:03:15;;;;;;;0.10;0.10;;;20.40;99.30;;;;;;5034522;28;20033;-80
2021/08/23 10:05:47;;;;;;;0.10;0.10;;;20.50;99.50;;;;;;5034131;28;20025;-80
2021/08/23 10:08:19;;;;;;;0.10;0.10;;;20.60;99.10;;;;;;5032745;28;20053;-81
2021/08/23 10:10:45;;;;;;;0.10;0.10;;;20.70;98.90;;;;;;5034475;28;20377;-80
2021/08/23 10:13:11;;;;;;;0.10;0.10;;;20.80;98.90;;;;;;5032441;28;20033;-80
2021/08/23 10:15:38;;;;;;;0.15;0.10;;;20.80;98.80;;;;;;5032934;28;20017;-79
2021/08/23 10:18:06;;;;;;;0.20;0.20;;;20.70;98.80;;;;;;5032982;28;20021;-81
2021/08/23 10:20:32;;;;;;;0.57;0.20;;;20.70;99.00;;;;;;5033952;28;20444;-81
2021/08/23 10:22:59;;;;;;;0.10;0.10;;;20.60;99.10;;;;;;5033099;28;20112;-81
2021/08/23 10:25:25;;;;;;;0.10;0.10;;;20.50;99.20;;;;;;5032530;28;20376;-79
2021/08/23 10:27:52;;;;;;;0.13;0.13;;;20.40;99.30;;;;;;5034552;28;20185;-81
2021/08/23 10:30:25;;;;;;;0.10;0.10;;;20.30;99.50;;;;;;5032634;28;20152;-81
2021/08/23 10:32:52;;;;;;;0.20;0.10;;;20.20;99.50;;;;;;5033336;28;20032;-81
2021/08/23 10:35:24;;;;;;;0.10;0.10;;;20.20;99.60;;;;;;5032805;28;20127;-81
2021/08/23 10:37:53;;;;;;;0.15;0.15;;;20.20;99.70;;;;;;5034545;28;20474;-80
2021/08/23 10:40:34;;;;;;;0.13;0.10;;;20.20;99.70;;;;;;5032421;28;20022;-81
2021/08/23 10:43:17;;;;;;;0.05;0.05;;;20.30;99.60;;;;;;5034210;28;20068;-81
2021/08/23 10:45:43;;;;;;;0.10;0.10;;;20.50;99.50;;;;;;5034729;28;20381;-81
2021/08/23 10:48:13;;;;;;;0.10;0.10;;;20.60;99.40;;;;;;5033065;28;20481;-82
2021/08/23 10:50:39;;;;;;;0.10;0.10;;;20.70;99.20;;;;;;5033838;28;20493;-81
2021/08/23 10:53:15;;;;;;;0.10;0.10;;;20.70;99.10;;;;;;5032521;28;20034;-81
2021/08/23 10:55:41;;;;;;;0.10;0.10;;;20.80;99.00;;;;;;5032901;28;20021;-82
2021/08/23 10:58:10;;;;;;;0.10;0.10;;;20.90;99.00;;;;;;5032602;28;20059;-81
2021/08/23 11:00:39;;;;;;;0.20;0.10;;;21.00;98.70;;;;;;5031894;28;20033;-82
2021/08/23 11:03:05;;;;;;;0.13;0.10;;;21.10;98.70;;;;;;5032245;28;20025;-80
2021/08/23 11:05:33;;;;;;;0.10;0.10;;;21.10;98.60;;;;;;5031699;28;20466;-81
2021/08/23 11:08:03;;;;;;;0.35;0.20;;;21.10;98.60;;;;;;5032392;28;20018;-81
2021/08/23 11:10:32;;;;;;;0.10;0.10;;;21.20;98.90;;;;;;5031611;28;20053;-81
2021/08/23 11:13:10;;;;;;;0.20;0.10;;;21.20;98.60;;;;;;5033973;28;20032;-82
2021/08/23 11:15:35;;;;;;;0.47;0.30;;;21.20;98.50;;;;;;5032171;28;20034;-80
2021/08/23 11:18:09;;;;;;;0.10;0.10;;;21.20;98.70;;;;;;5033248;28;20148;-83
2021/08/23 11:20:41;;;;;;;0.10;0.10;;;21.20;98.60;;;;;;5033108;28;20048;-82
2021/08/23 11:23:09;;;;;;;0.10;0.10;;;21.20;98.70;;;;;;5032102;28;20078;-80
2021/08/23 11:25:38;;;;;;;0.17;0.17;;;21.10;98.70;;;;;;5030944;28;20025;-80
2021/08/23 11:28:12;;;;;;;0.10;0.10;;;21.10;98.80;;;;;;5032770;28;20025;-80
2021/08/23 11:30:40;;;;;;;0.10;0.10;;;21.20;98.70;;;;;;5032168;28;20030;-79
2021/08/23 11:33:08;;;;;;;0.10;0.10;;;21.20;98.70;;;;;;5031498;28;20026;-80
2021/08/23 11:35:36;;;;;;;0.10;0.10;;;21.30;98.70;;;;;;5030554;28;20041;-80
2021/08/23 11:38:08;;;;;;;0.10;0.10;;;21.50;98.60;;;;;;5031398;28;20037;-80
2021/08/23 11:40:36;;;;;;;0.10;0.10;;;21.60;98.30;;;;;;5031693;28;20469;-80
2021/08/23 11:43:04;;;;;;;0.10;0.10;;;21.80;98.30;;;;;;5032587;28;20022;-80
2021/08/23 11:45:33;;;;;;;0.20;0.20;;;22.00;98.20;;;;;;5032253;28;20533;-80
2021/08/23 11:47:59;;;;;;;0.38;0.20;;;22.10;98.00;;;;;;5031043;28;20104;-80
2021/08/23 11:50:25;;;;;;;0.20;0.20;;;22.10;98.10;;;;;;5031654;28;20037;-80
2021/08/23 11:53:00;;;;;;;0.10;0.10;;;22.10;98.20;;;;;;5030743;28;20096;-80
2021/08/23 11:55:34;;;;;;;0.32;0.20;;;22.10;98.20;;;;;;5030544;28;20131;-80
2021/08/23 11:58:04;;;;;;;0.10;0.10;;;22.20;98.10;;;;;;5031046;28;20422;-81
2021/08/23 12:00:30;;;;;;;0.10;0.10;;;22.40;98.10;;;;;;5030585;28;20030;-81
2021/08/23 12:03:07;;;;;;;0.10;0.10;;;22.50;98.00;;;;;;5031165;28;20108;-81
2021/08/23 12:05:35;;;;;;;0.28;0.10;;;22.60;97.80;;;;;;5030550;28;20029;-81
2021/08/23 12:08:01;;;;;;;0.38;0.30;;;22.50;98.00;;;;;;5031042;28;20025;-81
2021/08/23 12:10:32;;;;;;;0.10;0.10;;;22.50;98.10;;;;;;5031710;28;20537;-81
2021/08/23 12:13:10;;;;;;;0.10;0.10;;;22.40;98.00;;;;;;5031395;28;20067;-81
2021/08/23 12:15:37;;;;;;;0.10;0.10;;;22.40;97.90;;;;;;5030151;28;20022;-81
2021/08/23 12:18:10;;;;;;;0.10;0.10;;;22.30;98.20;;;;;;5030837;28;20469;-82
2021/08/23 12:20:36;;;;;;;0.20;0.10;;;22.30;98.20;;;;;;5029961;28;20017;-80
2021/08/23 12:23:02;;;;;;;0.00;0.00;;;22.40;98.30;;;;;;5031356;28;20025;-79
2021/08/23 12:25:28;;;;;;;0.00;0.00;;;22.60;98.40;;;;;;5030269;28;20022;-80
2021/08/23 12:27:53;;;;;;;0.00;0.00;;;22.80;97.90;;;;;;5031582;28;20022;-79
2021/08/23 12:30:32;;;;;;;0.15;0.15;;;23.00;97.70;;;;;;5033627;28;20021;-81
2021/08/23 12:32:59;;;;;;;0.25;0.10;;;23.10;97.50;;;;;;5031344;28;20548;-80
2021/08/23 12:35:31;;;;;;;0.17;0.17;;;23.10;97.50;;;;;;5030338;28;20136;-81
2021/08/23 12:37:59;;;;;;;0.00;0.00;;;23.20;97.40;;;;;;5030948;28;20421;-81
2021/08/23 12:40:25;;;;;;;0.15;0.10;;;23.10;97.40;;;;;;5031253;28;20042;-80
2021/08/23 12:42:57;;;;;;;0.10;0.10;;;23.00;97.50;;;;;;5030945;28;20121;-81
2021/08/23 12:45:22;;;;;;;0.10;0.10;;;22.90;97.60;;;;;;5029735;28;20026;-80
2021/08/23 12:47:49;;;;;;;0.00;0.00;;;22.90;97.70;;;;;;5031826;28;20071;-80
2021/08/23 12:50:14;;;;;;;0.00;0.00;;;22.90;97.70;;;;;;5032005;28;20025;-80